createdAt,value
2022-12-23T09:00:50.140Z,114.43
2022-12-23T09:03:19.001Z,116.07
2022-12-23T09:05:45.866Z,111.85
2022-12-23T09:08:12.642Z,113.28
2022-12-23T09:10:43.355Z,115.50
2022-12-23T09:13:18.544Z,138.13
2022-12-23T09:15:49.250Z,123.60
2022-12-23T09:18:16.093Z,111.30
2022-12-23T09:20:42.775Z,104.72
2022-12-23T09:23:09.502Z,97.57
2022-12-23T09:25:37.054Z,85.82
2022-12-23T09:28:05.930Z,96.35
2022-12-23T09:30:32.830Z,95.35
2022-12-23T09:32:59.569Z,85.32
2022-12-23T09:35:26.225Z,85.57
2022-12-23T09:37:52.966Z,86.25
2022-12-23T09:40:21.451Z,99.57
2022-12-23T09:42:51.384Z,101.97
2022-12-23T09:45:55.711Z,79.85
2022-12-23T09:48:28.436Z,77.65
2022-12-23T09:50:55.520Z,83.88
2022-12-23T09:53:37.046Z,65.70
2022-12-23T09:56:12.035Z,70.95
2022-12-23T09:59:19.145Z,70.22
2022-12-23T10:02:00.463Z,96.68
2022-12-23T10:04:41.877Z,83.85
2022-12-23T10:07:24.418Z,77.38
2022-12-23T10:09:54.947Z,75.00
2022-12-23T10:12:47.888Z,75.60
2022-12-23T10:15:36.263Z,80.45
2022-12-23T10:18:18.813Z,83.00
2022-12-23T10:20:53.629Z,99.85
2022-12-23T10:23:30.845Z,90.53
2022-12-23T10:25:57.631Z,90.55
2022-12-23T10:28:24.704Z,89.75
2022-12-23T10:34:19.873Z,92.78
2022-12-23T10:37:05.039Z,87.80
2022-12-23T10:40:03.514Z,86.43
2022-12-23T10:42:41.346Z,84.78
2022-12-23T10:45:33.463Z,78.65
2022-12-23T10:48:31.233Z,89.78
2022-12-23T10:51:17.653Z,82.93
2022-12-23T10:54:10.602Z,86.18
2022-12-23T10:56:38.692Z,89.63
2022-12-23T10:59:06.864Z,83.70
2022-12-23T11:01:34.493Z,77.72
2022-12-23T11:04:17.153Z,76.80
2022-12-23T11:06:48.343Z,72.68
2022-12-23T11:09:21.761Z,75.30
2022-12-23T11:12:03.664Z,59.22
2022-12-23T11:14:34.394Z,66.82
2022-12-23T11:17:03.028Z,61.17
2022-12-23T11:19:29.824Z,54.22
2022-12-23T11:21:59.159Z,57.17
2022-12-23T11:24:31.155Z,47.85
2022-12-23T11:27:02.580Z,45.15
2022-12-23T11:29:35.982Z,51.65
2022-12-23T11:32:15.444Z,40.97
2022-12-23T11:34:46.077Z,39.45
2022-12-23T11:37:34.978Z,39.03
2022-12-23T11:40:03.123Z,33.03
2022-12-23T11:42:33.425Z,34.92
2022-12-23T11:45:00.824Z,36.17
2022-12-23T11:47:41.554Z,41.65
2022-12-23T11:50:28.796Z,35.17
2022-12-23T11:53:09.302Z,36.03
2022-12-23T11:55:37.419Z,36.67
2022-12-23T11:58:04.456Z,31.58
2022-12-23T12:00:40.739Z,31.52
2022-12-23T12:03:17.488Z,28.75
2022-12-23T12:05:51.406Z,24.87
2022-12-23T12:08:25.032Z,22.10
2022-12-23T12:10:53.507Z,27.27
2022-12-23T12:13:36.457Z,28.30
2022-12-23T12:16:32.711Z,27.80
2022-12-23T12:19:27.989Z,30.55
2022-12-23T12:21:59.414Z,29.52
2022-12-23T12:24:41.542Z,35.58
2022-12-23T12:27:11.064Z,35.92
2022-12-23T12:29:45.020Z,35.42
2022-12-23T12:32:22.497Z,42.22
2022-12-23T12:35:05.419Z,34.88
2022-12-23T12:37:49.850Z,34.85
2022-12-23T12:40:36.065Z,30.98
2022-12-23T12:43:22.889Z,33.30
2022-12-23T12:46:07.601Z,28.23
2022-12-23T12:48:55.691Z,30.42
2022-12-23T12:51:53.230Z,33.22
2022-12-23T12:54:26.132Z,31.73
2022-12-23T12:56:57.789Z,33.35
2022-12-23T12:59:31.200Z,31.30
2022-12-23T13:02:19.990Z,30.90
2022-12-23T13:05:24.720Z,33.65
2022-12-23T13:08:16.140Z,32.45
2022-12-23T13:10:52.109Z,27.95
2022-12-23T13:13:31.339Z,28.23
2022-12-23T13:16:20.156Z,26.73
2022-12-23T13:18:53.085Z,30.52
2022-12-23T13:21:28.943Z,26.92
2022-12-23T13:24:34.360Z,28.88
2022-12-23T13:27:10.601Z,23.75
2022-12-23T13:29:57.986Z,23.55
2022-12-23T13:33:05.150Z,27.50
2022-12-23T13:35:40.810Z,28.38
2022-12-23T13:38:42.835Z,29.38
2022-12-23T13:41:22.449Z,28.10
2022-12-23T13:43:53.267Z,31.05
2022-12-23T13:46:25.798Z,31.30
2022-12-23T13:49:24.172Z,28.33
2022-12-23T13:52:03.682Z,30.10
2022-12-23T13:54:59.616Z,33.60
2022-12-23T13:57:48.796Z,34.53
2022-12-23T14:00:18.611Z,34.97
2022-12-23T14:03:05.609Z,49.03
2022-12-23T14:05:41.821Z,38.90
2022-12-23T14:08:22.704Z,41.30
2022-12-23T14:11:02.569Z,37.83
2022-12-23T14:13:45.879Z,38.20
2022-12-23T14:16:44.698Z,44.03
2022-12-23T14:19:33.388Z,42.50
2022-12-23T14:22:08.078Z,50.22
2022-12-23T14:24:49.096Z,52.50
2022-12-23T14:27:34.658Z,56.35
2022-12-23T14:30:21.218Z,67.25
2022-12-23T14:32:59.010Z,59.70
2022-12-23T14:35:35.458Z,59.75
2022-12-23T14:38:15.907Z,60.30
2022-12-23T14:40:42.782Z,72.07
2022-12-23T14:43:33.029Z,71.43
2022-12-23T14:46:05.649Z,65.60
2022-12-23T14:48:44.804Z,73.82
2022-12-23T14:51:14.694Z,79.25
2022-12-23T14:53:59.915Z,73.75
2022-12-23T14:56:39.082Z,71.18
2022-12-23T14:59:49.297Z,62.78
2022-12-23T15:02:18.936Z,72.68
2022-12-23T15:04:50.422Z,76.55
2022-12-23T15:07:35.066Z,80.93
2022-12-23T15:10:27.134Z,78.85
2022-12-23T15:12:57.634Z,86.90
2022-12-23T15:15:27.591Z,98.15
2022-12-23T15:18:14.047Z,95.32
2022-12-23T15:20:40.846Z,91.15
2022-12-23T15:23:10.809Z,102.55
2022-12-23T15:25:57.920Z,122.60
2022-12-23T15:28:41.191Z,110.90
2022-12-23T15:31:25.167Z,124.75
2022-12-23T15:34:02.892Z,121.80
2022-12-23T15:36:44.931Z,123.65
2022-12-23T15:39:20.065Z,112.03
2022-12-23T15:41:48.573Z,187.15
2022-12-23T15:44:45.640Z,158.88
2022-12-23T15:48:07.130Z,130.18
2022-12-23T15:50:42.162Z,119.65
2022-12-23T15:53:17.286Z,138.93
2022-12-23T15:55:44.854Z,140.55
2022-12-23T15:58:24.564Z,139.20
2022-12-23T16:01:02.425Z,135.32
